createdAt,value
2022-11-30T00:01:22.117Z,86.73
2022-11-30T00:03:49.064Z,86.62
2022-11-30T00:06:22.697Z,86.25
2022-11-30T00:08:54.053Z,86.80
2022-11-30T00:11:22.513Z,86.73
2022-11-30T00:13:49.108Z,86.67
2022-11-30T00:16:15.834Z,86.38
2022-11-30T00:18:42.287Z,86.39
2022-11-30T00:21:11.846Z,86.89
2022-11-30T00:23:40.225Z,87.07
2022-11-30T00:26:09.552Z,87.52
2022-11-30T00:28:37.536Z,87.03
2022-11-30T00:31:10.819Z,87.17
2022-11-30T00:33:38.267Z,87.46
2022-11-30T00:36:12.142Z,87.56
2022-11-30T00:38:38.992Z,87.40
2022-11-30T00:41:06.116Z,87.37
2022-11-30T00:43:32.533Z,87.31
2022-11-30T00:45:59.391Z,87.51
2022-11-30T00:48:25.810Z,87.04
2022-11-30T00:50:52.665Z,87.02
2022-11-30T00:53:19.268Z,87.28
2022-11-30T00:55:48.017Z,87.17
2022-11-30T00:58:14.902Z,87.56
2022-11-30T01:00:41.584Z,87.94
2022-11-30T01:03:08.226Z,87.44
2022-11-30T01:05:34.920Z,87.75
2022-11-30T01:08:02.350Z,87.75
2022-11-30T01:10:29.055Z,87.84
2022-11-30T01:12:55.817Z,87.87
2022-11-30T01:15:22.664Z,87.97
2022-11-30T01:17:49.046Z,88.50
2022-11-30T01:20:15.481Z,88.34
2022-11-30T01:22:41.932Z,89.41
2022-11-30T01:25:08.879Z,89.07
2022-11-30T01:27:35.192Z,89.09
2022-11-30T01:30:01.689Z,89.46
2022-11-30T01:32:28.141Z,89.03
2022-11-30T01:34:54.614Z,88.70
2022-11-30T01:37:20.956Z,88.56
2022-11-30T01:39:47.303Z,89.12
2022-11-30T01:42:16.847Z,89.44
2022-11-30T01:44:55.122Z,89.02
2022-11-30T01:47:27.977Z,89.74
2022-11-30T01:50:04.276Z,89.19
2022-11-30T01:52:41.183Z,88.82
2022-11-30T01:55:22.147Z,88.76
2022-11-30T01:57:56.116Z,88.58
2022-11-30T02:00:23.816Z,88.58
2022-11-30T02:02:58.744Z,88.39
2022-11-30T02:05:26.679Z,89.05
2022-11-30T02:07:54.041Z,89.70
2022-11-30T02:10:28.091Z,89.17
2022-11-30T02:13:15.884Z,89.20
2022-11-30T02:16:01.033Z,88.89
2022-11-30T02:18:38.704Z,89.32
2022-11-30T02:21:23.532Z,89.21
2022-11-30T02:24:11.810Z,89.63
2022-11-30T02:27:02.945Z,89.47
2022-11-30T02:30:05.437Z,89.66
2022-11-30T02:32:38.115Z,90.16
2022-11-30T02:35:07.061Z,90.68
2022-11-30T02:37:35.200Z,90.43
2022-11-30T02:40:01.592Z,90.16
2022-11-30T02:42:27.918Z,90.27
2022-11-30T02:44:54.678Z,90.70
2022-11-30T02:47:40.398Z,90.59
2022-11-30T02:50:18.654Z,90.79
2022-11-30T02:52:45.872Z,91.05
2022-11-30T02:55:16.982Z,90.83
2022-11-30T02:57:43.452Z,91.23
2022-11-30T03:00:12.231Z,90.65
2022-11-30T03:02:39.927Z,91.58
2022-11-30T03:05:07.202Z,91.02
2022-11-30T03:07:33.588Z,92.00
2022-11-30T03:10:00.431Z,91.83
2022-11-30T03:12:26.869Z,91.74
2022-11-30T03:14:53.466Z,91.84
2022-11-30T03:17:19.830Z,90.95
2022-11-30T03:19:46.150Z,92.30
2022-11-30T03:22:12.558Z,91.24
2022-11-30T03:24:38.963Z,90.86
2022-11-30T03:27:05.372Z,91.69
2022-11-30T03:29:31.699Z,91.24
2022-11-30T03:31:58.114Z,90.74
2022-11-30T03:34:26.468Z,90.81
2022-11-30T03:36:53.276Z,90.96
2022-11-30T03:39:19.688Z,90.68
2022-11-30T03:41:46.145Z,90.90
2022-11-30T03:44:12.657Z,90.79
2022-11-30T03:46:39.297Z,90.74
2022-11-30T03:49:05.826Z,90.92
2022-11-30T03:51:32.226Z,90.87
2022-11-30T03:53:58.857Z,90.98
2022-11-30T03:56:25.507Z,91.32
2022-11-30T03:58:51.894Z,91.17
2022-11-30T04:01:23.648Z,90.94
2022-11-30T04:03:51.774Z,90.52
2022-11-30T04:06:19.522Z,90.42
2022-11-30T04:08:46.392Z,89.93
2022-11-30T04:11:14.193Z,90.30
2022-11-30T04:13:41.346Z,90.66
2022-11-30T04:16:08.048Z,90.27
2022-11-30T04:18:36.391Z,89.87
2022-11-30T04:21:03.126Z,90.12
2022-11-30T04:23:31.985Z,89.68
2022-11-30T04:25:58.873Z,89.71
2022-11-30T04:28:25.378Z,89.48
2022-11-30T04:30:53.827Z,89.67
2022-11-30T04:33:20.368Z,89.61
2022-11-30T04:35:50.138Z,89.62
2022-11-30T04:38:16.541Z,89.77
2022-11-30T04:40:44.014Z,89.32
2022-11-30T04:43:11.878Z,89.45
2022-11-30T04:45:38.936Z,89.56
2022-11-30T04:48:06.513Z,89.75
2022-11-30T04:50:33.379Z,89.36
2022-11-30T04:52:59.837Z,89.78
2022-11-30T04:55:26.783Z,89.72
2022-11-30T04:57:53.631Z,89.82
2022-11-30T05:00:20.344Z,89.45
2022-11-30T05:02:52.420Z,89.04
2022-11-30T05:05:19.624Z,89.00
2022-11-30T05:07:49.708Z,89.04
2022-11-30T05:10:16.506Z,89.14
2022-11-30T05:12:43.031Z,88.93
2022-11-30T05:15:09.973Z,89.24
2022-11-30T05:17:36.404Z,89.28
2022-11-30T05:20:03.198Z,89.11
2022-11-30T05:22:29.610Z,89.07
2022-11-30T05:24:55.966Z,88.93
2022-11-30T05:27:22.813Z,88.51
2022-11-30T05:29:49.343Z,88.87
2022-11-30T05:32:15.712Z,88.86
2022-11-30T05:34:50.631Z,88.86
2022-11-30T05:37:18.169Z,89.03
2022-11-30T05:39:44.538Z,88.89
2022-11-30T05:42:13.797Z,88.98
2022-11-30T05:44:40.184Z,88.23
2022-11-30T05:47:06.594Z,88.65
2022-11-30T05:49:33.077Z,88.91
2022-11-30T05:51:59.571Z,88.68
2022-11-30T05:54:25.995Z,88.65
2022-11-30T05:56:55.026Z,88.64
2022-11-30T05:59:22.514Z,88.49
2022-11-30T06:01:49.091Z,88.56
2022-11-30T06:04:15.595Z,88.57
2022-11-30T06:06:41.970Z,88.45
2022-11-30T06:09:08.334Z,88.91
2022-11-30T06:11:34.686Z,88.42
2022-11-30T06:14:00.991Z,88.51
2022-11-30T06:16:27.330Z,88.85
2022-11-30T06:18:53.697Z,88.34
2022-11-30T06:21:24.434Z,88.25
2022-11-30T06:23:52.182Z,87.89
2022-11-30T06:26:18.559Z,87.79
2022-11-30T06:28:48.217Z,88.03
2022-11-30T06:31:15.714Z,87.07
2022-11-30T06:33:42.132Z,87.13
2022-11-30T06:36:09.193Z,86.60
2022-11-30T06:38:35.532Z,86.63
2022-11-30T06:41:07.200Z,86.74
2022-11-30T06:43:35.533Z,86.88
2022-11-30T06:46:03.560Z,86.68
2022-11-30T06:48:30.146Z,87.07
2022-11-30T06:50:56.595Z,86.92
2022-11-30T06:53:22.953Z,86.45
2022-11-30T06:55:49.391Z,86.51
2022-11-30T06:58:15.872Z,86.63
2022-11-30T07:00:42.805Z,86.46
2022-11-30T07:03:11.302Z,86.29
2022-11-30T07:05:43.959Z,86.33
2022-11-30T07:08:11.566Z,86.35
2022-11-30T07:10:46.232Z,85.85
2022-11-30T07:13:14.704Z,86.15
2022-11-30T07:15:42.133Z,85.74
2022-11-30T07:18:09.450Z,85.11
2022-11-30T07:20:36.936Z,85.74
2022-11-30T07:23:22.594Z,86.24
2022-11-30T07:26:06.216Z,85.65
2022-11-30T07:28:33.951Z,85.52
2022-11-30T07:31:00.288Z,85.51
2022-11-30T07:33:26.693Z,85.16
2022-11-30T07:35:54.012Z,85.30
2022-11-30T07:38:20.338Z,84.97
2022-11-30T07:40:46.645Z,85.17
2022-11-30T07:43:12.975Z,85.01
2022-11-30T07:45:39.320Z,85.96
2022-11-30T07:48:05.763Z,85.72
2022-11-30T07:50:32.110Z,85.56
2022-11-30T07:52:58.581Z,85.62
2022-11-30T07:55:25.042Z,85.99
2022-11-30T07:57:51.392Z,86.17
2022-11-30T08:00:17.859Z,86.08
2022-11-30T08:02:44.200Z,86.13
2022-11-30T08:05:12.118Z,86.47
2022-11-30T08:07:38.633Z,86.62
2022-11-30T08:10:05.859Z,85.91
2022-11-30T08:12:32.434Z,85.46
2022-11-30T08:15:19.215Z,85.49
2022-11-30T08:17:45.520Z,85.25
2022-11-30T08:20:12.106Z,85.47
2022-11-30T08:22:38.482Z,85.67
2022-11-30T08:25:05.482Z,85.12
2022-11-30T08:27:31.793Z,85.34
2022-11-30T08:29:58.110Z,85.41
2022-11-30T08:32:24.417Z,85.52
2022-11-30T08:34:50.933Z,85.70
2022-11-30T08:37:17.423Z,85.89
2022-11-30T08:39:43.808Z,85.76
2022-11-30T08:42:10.124Z,86.29
2022-11-30T08:44:36.482Z,86.61
2022-11-30T08:47:03.035Z,87.36
2022-11-30T08:49:30.853Z,86.50
2022-11-30T08:54:46.205Z,86.72
2022-11-30T08:57:14.273Z,86.92
2022-11-30T08:59:40.683Z,86.44
2022-11-30T09:02:13.266Z,86.40
2022-11-30T09:04:39.682Z,86.27
2022-11-30T09:07:06.013Z,86.35
2022-11-30T09:09:32.625Z,86.06
2022-11-30T09:11:58.985Z,85.97
2022-11-30T09:14:25.378Z,85.85
2022-11-30T09:16:53.418Z,86.34
2022-11-30T09:19:20.253Z,85.90
2022-11-30T09:21:51.568Z,86.16
2022-11-30T09:24:18.999Z,86.10
2022-11-30T09:26:45.338Z,86.04
2022-11-30T09:29:11.755Z,86.21
2022-11-30T09:31:38.088Z,85.81
2022-11-30T09:34:04.530Z,86.10
2022-11-30T09:36:34.577Z,86.39
2022-11-30T09:39:01.073Z,85.71
2022-11-30T09:41:54.352Z,86.23
2022-11-30T09:44:36.478Z,86.36
2022-11-30T09:47:15.080Z,85.92
2022-11-30T09:49:47.171Z,85.91
2022-11-30T09:52:18.613Z,86.04
2022-11-30T09:54:47.853Z,85.80
2022-11-30T09:57:17.402Z,85.48
2022-11-30T09:59:58.469Z,85.47
2022-11-30T10:02:31.071Z,85.65
2022-11-30T10:04:58.093Z,85.33
2022-11-30T10:07:44.959Z,85.27
2022-11-30T10:10:37.659Z,85.61
2022-11-30T10:13:23.266Z,85.21
2022-11-30T10:16:26.667Z,84.57
2022-11-30T10:19:19.633Z,84.90
2022-11-30T10:21:59.192Z,84.88
2022-11-30T10:24:40.519Z,84.96
2022-11-30T10:27:17.074Z,84.30
2022-11-30T10:29:44.204Z,84.75
2022-11-30T10:32:19.006Z,84.66
2022-11-30T10:34:51.769Z,84.26
2022-11-30T10:37:35.916Z,84.53
2022-11-30T10:40:18.022Z,84.45
2022-11-30T10:42:57.805Z,84.45
2022-11-30T10:45:27.180Z,84.56
2022-11-30T10:48:03.385Z,84.31
2022-11-30T10:50:31.318Z,83.91
2022-11-30T10:53:00.103Z,84.27
2022-11-30T10:55:30.086Z,84.09
2022-11-30T10:58:03.901Z,83.88
2022-11-30T11:00:30.236Z,83.52
2022-11-30T11:02:56.722Z,83.87
2022-11-30T11:05:29.693Z,84.12
2022-11-30T11:08:25.328Z,83.84
2022-11-30T11:10:51.753Z,83.73
2022-11-30T11:13:40.521Z,83.41
2022-11-30T11:16:09.978Z,83.26
2022-11-30T11:18:51.189Z,83.27
2022-11-30T11:21:19.694Z,83.38
2022-11-30T11:23:47.617Z,83.27
2022-11-30T11:26:19.855Z,83.28
2022-11-30T11:28:51.791Z,82.79
2022-11-30T11:31:48.974Z,83.21
2022-11-30T11:34:34.363Z,83.19
2022-11-30T11:37:21.945Z,83.17
2022-11-30T11:40:00.523Z,83.25
2022-11-30T11:42:30.648Z,82.75
2022-11-30T11:44:59.533Z,82.92
2022-11-30T11:47:32.662Z,82.73
2022-11-30T11:50:06.693Z,83.07
2022-11-30T11:52:33.072Z,82.99
2022-11-30T11:55:03.332Z,83.16
2022-11-30T11:57:47.924Z,82.93
2022-11-30T12:00:16.398Z,82.65
2022-11-30T12:03:07.704Z,82.66
2022-11-30T12:05:42.813Z,82.74
2022-11-30T12:08:27.450Z,82.63
2022-11-30T12:11:16.312Z,82.24
2022-11-30T12:13:44.337Z,81.71
2022-11-30T12:16:42.684Z,81.73
2022-11-30T12:19:21.283Z,81.85
2022-11-30T12:22:03.333Z,82.23
2022-11-30T12:24:29.670Z,81.97
2022-11-30T12:27:02.978Z,81.67
2022-11-30T12:29:48.419Z,81.76
2022-11-30T12:32:50.283Z,81.43
2022-11-30T12:35:45.323Z,81.51
2022-11-30T12:38:38.468Z,81.37
2022-11-30T12:41:29.813Z,81.08
2022-11-30T12:44:04.644Z,80.84
2022-11-30T12:46:39.348Z,81.10
2022-11-30T12:49:21.395Z,80.19
2022-11-30T12:51:53.889Z,80.64
2022-11-30T12:54:41.596Z,80.54
2022-11-30T12:57:20.900Z,80.31
2022-11-30T13:00:05.836Z,80.68
2022-11-30T13:02:59.491Z,80.48
2022-11-30T13:05:53.968Z,80.26
2022-11-30T13:08:27.607Z,80.37
2022-11-30T13:11:04.514Z,80.35
2022-11-30T13:13:34.105Z,80.23
2022-11-30T13:16:07.878Z,80.44
2022-11-30T13:18:36.147Z,80.26
2022-11-30T13:21:11.674Z,80.46
2022-11-30T13:23:52.785Z,80.10
2022-11-30T13:26:42.980Z,80.69
2022-11-30T13:29:43.741Z,80.23
2022-11-30T13:32:55.211Z,80.01
2022-11-30T13:35:28.910Z,80.29
2022-11-30T13:38:40.272Z,79.74
2022-11-30T13:41:08.815Z,79.78
2022-11-30T13:43:47.939Z,79.76
2022-11-30T13:46:19.489Z,79.58
2022-11-30T13:48:46.752Z,79.46
2022-11-30T13:51:33.397Z,80.02
2022-11-30T13:54:38.803Z,80.22
2022-11-30T13:57:27.114Z,79.78
2022-11-30T13:59:58.567Z,79.81
2022-11-30T14:02:31.510Z,79.61
2022-11-30T14:05:16.463Z,79.26
2022-11-30T14:07:51.977Z,79.15
2022-11-30T14:10:35.196Z,79.57
2022-11-30T14:13:04.458Z,79.59
2022-11-30T14:15:40.720Z,79.56
2022-11-30T14:18:10.084Z,79.83
2022-11-30T14:20:48.828Z,79.63
2022-11-30T14:23:20.786Z,79.06
2022-11-30T14:25:51.803Z,79.06
2022-11-30T14:28:22.911Z,78.68
2022-11-30T14:30:49.397Z,78.19
2022-11-30T14:33:27.063Z,78.39
2022-11-30T14:35:57.993Z,78.05
2022-11-30T14:38:27.519Z,77.88
2022-11-30T14:40:54.692Z,78.94
2022-11-30T14:43:21.329Z,78.18
2022-11-30T14:46:08.149Z,78.21
2022-11-30T14:48:37.936Z,78.43
2022-11-30T14:51:04.528Z,78.28
2022-11-30T14:54:00.088Z,78.46
2022-11-30T14:56:36.846Z,78.19
2022-11-30T14:59:27.604Z,78.16
2022-11-30T15:01:59.862Z,77.75
2022-11-30T15:04:27.654Z,77.82
2022-11-30T15:06:55.849Z,78.03
2022-11-30T15:09:32.482Z,78.05
2022-11-30T15:11:59.873Z,77.99
2022-11-30T15:14:26.443Z,78.04
2022-11-30T15:16:59.648Z,77.97
2022-11-30T15:19:29.497Z,77.98
2022-11-30T15:21:56.895Z,78.01
2022-11-30T15:24:23.864Z,77.93
2022-11-30T15:27:04.341Z,78.07
2022-11-30T15:29:43.111Z,78.04
2022-11-30T15:32:17.685Z,78.49
2022-11-30T15:34:56.781Z,78.49
2022-11-30T15:37:37.895Z,78.46
2022-11-30T15:40:07.821Z,78.57
2022-11-30T15:42:43.817Z,78.52
2022-11-30T15:45:23.703Z,78.75
2022-11-30T15:47:51.609Z,78.62
2022-11-30T15:50:39.474Z,78.49
2022-11-30T15:53:54.197Z,78.77
2022-11-30T15:56:26.085Z,78.81
2022-11-30T15:59:14.088Z,78.97
2022-11-30T16:02:08.890Z,78.67
2022-11-30T16:04:53.848Z,78.92
2022-11-30T16:07:20.277Z,78.52
2022-11-30T16:09:46.946Z,78.70
2022-11-30T16:12:28.351Z,79.12
2022-11-30T16:14:54.782Z,79.30
2022-11-30T16:17:21.574Z,79.24
2022-11-30T16:19:48.150Z,79.28
2022-11-30T16:22:15.955Z,79.07
2022-11-30T16:24:42.766Z,79.19
2022-11-30T16:27:20.060Z,79.09
2022-11-30T16:29:51.902Z,79.22
2022-11-30T16:32:19.467Z,79.19
2022-11-30T16:34:47.720Z,78.94
2022-11-30T16:37:14.722Z,79.04
2022-11-30T16:39:41.119Z,79.20
2022-11-30T16:42:11.827Z,78.86
2022-11-30T16:44:38.339Z,78.80
2022-11-30T16:47:04.673Z,79.25
2022-11-30T16:49:31.039Z,79.25
2022-11-30T16:51:57.386Z,78.87
2022-11-30T16:54:23.736Z,79.09
2022-11-30T16:56:50.063Z,78.74
2022-11-30T16:59:17.069Z,79.20
2022-11-30T17:01:47.266Z,78.61
2022-11-30T17:04:26.309Z,78.93
2022-11-30T17:06:58.793Z,79.34
2022-11-30T17:09:29.780Z,79.07
2022-11-30T17:11:56.334Z,79.21
2022-11-30T17:14:23.762Z,79.38
2022-11-30T17:16:50.518Z,79.60
2022-11-30T17:19:17.098Z,79.46
2022-11-30T17:21:44.509Z,79.16
2022-11-30T17:24:11.912Z,79.24
2022-11-30T17:26:38.344Z,79.39
2022-11-30T17:29:04.694Z,79.28
2022-11-30T17:31:31.263Z,79.10
2022-11-30T17:33:57.940Z,79.28
2022-11-30T17:36:24.422Z,79.24
2022-11-30T17:38:51.036Z,79.50
2022-11-30T17:41:19.915Z,79.80
2022-11-30T17:43:47.881Z,79.88
2022-11-30T17:46:17.243Z,79.57
2022-11-30T17:48:43.934Z,79.60
2022-11-30T17:51:12.758Z,79.51
2022-11-30T17:53:40.456Z,79.53
2022-11-30T17:56:09.232Z,79.59
2022-11-30T17:58:43.397Z,79.65
2022-11-30T18:01:23.173Z,79.70
2022-11-30T18:03:50.316Z,79.71
2022-11-30T18:06:17.452Z,80.03
2022-11-30T18:08:44.354Z,80.36
2022-11-30T18:11:13.538Z,80.19
2022-11-30T18:13:40.619Z,80.60
2022-11-30T18:16:15.468Z,80.69
2022-11-30T18:18:47.423Z,80.75
2022-11-30T18:21:18.037Z,80.54
2022-11-30T18:23:44.579Z,80.13
2022-11-30T18:26:17.311Z,80.45
2022-11-30T18:28:44.442Z,80.82
2022-11-30T18:31:11.059Z,81.33
2022-11-30T18:33:38.275Z,80.89
2022-11-30T18:36:09.014Z,81.28
2022-11-30T18:38:38.475Z,80.82
2022-11-30T18:41:05.945Z,81.08
2022-11-30T18:43:33.406Z,81.26
2022-11-30T18:46:08.460Z,81.33
2022-11-30T18:48:36.039Z,81.24
2022-11-30T18:51:28.089Z,81.82
2022-11-30T18:54:08.541Z,81.92
2022-11-30T18:56:37.189Z,81.48
2022-11-30T18:59:06.751Z,81.27
2022-11-30T19:01:33.586Z,81.30
2022-11-30T19:04:02.657Z,81.38
2022-11-30T19:06:29.947Z,81.38
2022-11-30T19:08:57.103Z,81.37
2022-11-30T19:11:24.158Z,81.56
2022-11-30T19:13:54.890Z,81.42
2022-11-30T19:16:21.618Z,81.63
2022-11-30T19:18:48.656Z,81.27
2022-11-30T19:21:17.534Z,81.20
2022-11-30T19:23:44.327Z,81.80
2022-11-30T19:26:11.189Z,81.93
2022-11-30T19:28:38.593Z,81.20
2022-11-30T19:31:10.985Z,81.32
2022-11-30T19:33:39.277Z,81.66
2022-11-30T19:36:08.395Z,81.67
2022-11-30T19:38:34.846Z,81.84
2022-11-30T19:41:06.145Z,81.54
2022-11-30T19:43:32.520Z,81.27
2022-11-30T19:46:11.518Z,81.17
2022-11-30T19:48:37.917Z,81.18
2022-11-30T19:51:06.776Z,81.49
2022-11-30T19:53:33.642Z,82.15
2022-11-30T19:56:04.633Z,82.09
2022-11-30T19:58:31.735Z,81.95
2022-11-30T20:01:05.715Z,82.26
2022-11-30T20:03:35.725Z,82.31
2022-11-30T20:06:02.895Z,82.09
2022-11-30T20:08:29.377Z,82.94
2022-11-30T20:10:55.747Z,82.67
2022-11-30T20:13:22.068Z,82.68
2022-11-30T20:15:48.664Z,83.02
2022-11-30T20:18:15.082Z,82.73
2022-11-30T20:20:41.420Z,82.44
2022-11-30T20:23:07.766Z,82.27
2022-11-30T20:25:34.371Z,82.02
2022-11-30T20:28:01.049Z,82.19
2022-11-30T20:30:28.127Z,81.93
2022-11-30T20:32:54.536Z,81.88
2022-11-30T20:35:21.042Z,81.90
2022-11-30T20:37:47.485Z,81.70
2022-11-30T20:40:13.915Z,81.70
2022-11-30T20:42:40.235Z,81.78
2022-11-30T20:45:07.009Z,81.89
2022-11-30T20:47:36.579Z,81.71
2022-11-30T20:50:04.761Z,81.76
2022-11-30T20:52:31.113Z,81.47
2022-11-30T20:54:57.480Z,81.88
2022-11-30T20:57:23.784Z,82.25
2022-11-30T20:59:50.346Z,81.43
2022-11-30T21:02:16.730Z,81.52
2022-11-30T21:04:43.273Z,81.53
2022-11-30T21:07:09.623Z,80.76
2022-11-30T21:09:35.956Z,80.88
2022-11-30T21:12:02.257Z,80.68
2022-11-30T21:14:28.788Z,80.89
2022-11-30T21:16:55.185Z,81.13
2022-11-30T21:19:21.696Z,81.48
2022-11-30T21:21:48.056Z,81.41
2022-11-30T21:24:14.410Z,81.89
2022-11-30T21:26:42.851Z,81.48
2022-11-30T21:29:15.298Z,81.82
2022-11-30T21:31:42.287Z,81.83
2022-11-30T21:34:08.977Z,82.14
2022-11-30T21:36:35.405Z,82.09
2022-11-30T21:39:06.131Z,82.05
2022-11-30T21:41:37.988Z,82.56
2022-11-30T21:44:05.748Z,82.55
2022-11-30T21:46:32.588Z,82.33
2022-11-30T21:48:58.984Z,82.53
2022-11-30T21:51:28.826Z,82.27
2022-11-30T21:53:57.796Z,82.27
2022-11-30T21:56:29.925Z,82.43
2022-11-30T21:58:57.383Z,82.12
2022-11-30T22:01:30.725Z,82.08
2022-11-30T22:03:58.918Z,82.40
2022-11-30T22:06:27.226Z,82.26
2022-11-30T22:08:56.229Z,82.52
2022-11-30T22:11:23.166Z,82.34
2022-11-30T22:13:51.686Z,82.22
2022-11-30T22:16:19.180Z,82.12
2022-11-30T22:18:46.110Z,82.09
2022-11-30T22:21:18.224Z,82.57
2022-11-30T22:23:46.738Z,82.83
2022-11-30T22:26:16.882Z,82.56
2022-11-30T22:28:45.661Z,82.33
2022-11-30T22:31:14.026Z,82.66
2022-11-30T22:33:42.640Z,82.40
2022-11-30T22:36:13.613Z,82.41
2022-11-30T22:38:40.362Z,82.33
2022-11-30T22:41:08.531Z,82.33
2022-11-30T22:43:35.427Z,82.47
2022-11-30T22:46:10.031Z,82.04
2022-11-30T22:48:37.363Z,82.07
2022-11-30T22:51:04.547Z,81.60
2022-11-30T22:53:31.038Z,81.71
2022-11-30T22:56:04.807Z,82.38
2022-11-30T22:58:31.342Z,82.63
2022-11-30T23:00:58.828Z,82.25
2022-11-30T23:03:28.371Z,82.25
2022-11-30T23:05:55.159Z,82.42
2022-11-30T23:08:21.599Z,82.29
2022-11-30T23:10:48.235Z,82.25
2022-11-30T23:13:14.591Z,82.01
2022-11-30T23:15:41.661Z,81.79
2022-11-30T23:18:08.136Z,81.82
2022-11-30T23:20:35.867Z,82.27
2022-11-30T23:23:02.199Z,82.39
2022-11-30T23:25:28.587Z,82.34
2022-11-30T23:27:55.053Z,81.99
2022-11-30T23:30:21.379Z,82.32
2022-11-30T23:32:47.867Z,82.47
2022-11-30T23:35:14.270Z,82.26
2022-11-30T23:37:40.688Z,82.67
2022-11-30T23:40:07.854Z,82.47
2022-11-30T23:42:34.245Z,82.44
2022-11-30T23:45:01.025Z,82.56
2022-11-30T23:47:27.588Z,82.50
2022-11-30T23:49:53.926Z,82.89
2022-11-30T23:52:20.306Z,82.67
2022-11-30T23:54:46.754Z,82.41
2022-11-30T23:57:13.276Z,82.76
2022-11-30T23:59:39.578Z,83.40
